TimeEDT,TemperatureF,Dew PointF,Humidity,Sea Level PressureIn,VisibilityMPH,Wind Direction,Wind SpeedMPH,Gust SpeedMPH,PrecipitationIn,Events,Conditions,WindDirDegrees,DateUTC
12:15 AM,60.8,51.8,72,30.04,10.0,South,11.5,17.3,N/A,,Clear,170,2012-10-26 04:15:00
12:35 AM,60.8,51.8,72,30.04,10.0,SSE,11.5,19.6,N/A,,Clear,160,2012-10-26 04:35:00
1:15 AM,59.0,51.8,77,30.05,9.0,South,12.7,18.4,N/A,,Clear,180,2012-10-26 05:15:00
1:35 AM,57.2,51.8,82,30.05,8.0,South,10.4,17.3,N/A,,Clear,180,2012-10-26 05:35:00
1:55 AM,57.2,51.8,82,30.05,8.0,South,13.8,17.3,N/A,,Clear,180,2012-10-26 05:55:00
2:15 AM,57.2,51.8,82,30.05,7.0,South,12.7,-,N/A,,Clear,180,2012-10-26 06:15:00
2:35 AM,57.2,51.8,82,30.06,7.0,South,10.4,-,N/A,,Clear,170,2012-10-26 06:35:00
2:55 AM,57.2,51.8,82,30.06,7.0,South,10.4,-,N/A,,Clear,170,2012-10-26 06:55:00
3:15 AM,57.2,51.8,82,30.06,7.0,South,11.5,-,N/A,,Clear,170,2012-10-26 07:15:00
3:35 AM,57.2,51.8,82,30.06,7.0,South,11.5,-,N/A,,Clear,170,2012-10-26 07:35:00
3:55 AM,57.2,51.8,82,30.06,7.0,South,11.5,-,N/A,,Clear,170,2012-10-26 07:55:00
4:15 AM,57.2,51.8,82,30.06,7.0,South,12.7,17.3,N/A,,Clear,170,2012-10-26 08:15:00
4:35 AM,55.4,51.8,88,30.07,7.0,South,11.5,-,N/A,,Clear,180,2012-10-26 08:35:00
4:55 AM,57.2,51.8,82,30.07,7.0,South,11.5,-,N/A,,Clear,180,2012-10-26 08:55:00
5:15 AM,55.4,51.8,88,30.07,7.0,South,12.7,-,N/A,,Clear,180,2012-10-26 09:15:00
5:35 AM,57.2,51.8,82,30.08,7.0,South,10.4,-,N/A,,Clear,180,2012-10-26 09:35:00
5:55 AM,55.4,51.8,88,30.08,7.0,South,11.5,16.1,N/A,,Clear,190,2012-10-26 09:55:00
6:15 AM,55.4,51.8,88,30.08,7.0,South,9.2,17.3,N/A,,Clear,180,2012-10-26 10:15:00
6:35 AM,55.4,51.8,88,30.09,6.0,South,9.2,-,N/A,,Clear,190,2012-10-26 10:35:00
6:55 AM,55.4,51.8,88,30.09,6.0,South,8.1,-,N/A,,Clear,190,2012-10-26 10:55:00
7:15 AM,55.4,51.8,88,30.09,5.0,South,9.2,-,N/A,,Clear,180,2012-10-26 11:15:00
7:35 AM,55.4,51.8,88,30.09,5.0,South,11.5,-,N/A,,Clear,170,2012-10-26 11:35:00
7:55 AM,55.4,51.8,88,30.09,4.0,South,9.2,-,N/A,,Clear,180,2012-10-26 11:55:00
8:15 AM,55.4,51.8,88,30.09,4.0,South,9.2,-,N/A,,Clear,180,2012-10-26 12:15:00
8:55 AM,57.2,53.6,88,30.10,5.0,South,11.5,-,N/A,,Clear,170,2012-10-26 12:55:00
9:55 AM,60.8,53.6,77,30.10,8.0,South,11.5,17.3,N/A,,Clear,180,2012-10-26 13:55:00
10:15 AM,60.8,53.6,77,30.11,10.0,SSW,11.5,18.4,N/A,,Scattered Clouds,200,2012-10-26 14:15:00
10:35 AM,62.6,53.6,72,30.10,10.0,South,10.4,-,N/A,,Mostly Cloudy,180,2012-10-26 14:35:00
10:55 AM,62.6,53.6,72,30.09,10.0,South,12.7,-,N/A,,Partly Cloudy,170,2012-10-26 14:55:00
11:15 AM,64.4,53.6,68,30.10,10.0,South,10.4,-,N/A,,Clear,180,2012-10-26 15:15:00
11:35 AM,66.2,53.6,64,30.09,10.0,South,12.7,-,N/A,,Clear,170,2012-10-26 15:35:00
11:55 AM,66.2,53.6,64,30.09,10.0,South,11.5,16.1,N/A,,Clear,190,2012-10-26 15:55:00
12:15 PM,66.2,53.6,64,30.09,10.0,SSW,11.5,-,N/A,,Clear,200,2012-10-26 16:15:00
12:35 PM,69.8,53.6,56,30.09,10.0,SSW,11.5,16.1,N/A,,Partly Cloudy,210,2012-10-26 16:35:00
12:55 PM,69.8,53.6,56,30.07,10.0,SW,6.9,-,N/A,,Partly Cloudy,220,2012-10-26 16:55:00
1:15 PM,69.8,53.6,56,30.07,10.0,SW,6.9,-,N/A,,Partly Cloudy,220,2012-10-26 17:15:00
1:35 PM,69.8,53.6,56,30.07,10.0,WSW,9.2,-,N/A,,Scattered Clouds,250,2012-10-26 17:35:00
1:55 PM,68.0,53.6,60,30.07,10.0,WSW,8.1,-,N/A,,Mostly Cloudy,250,2012-10-26 17:55:00
2:15 PM,68.0,53.6,60,30.07,10.0,WSW,9.2,-,N/A,,Overcast,250,2012-10-26 18:15:00
2:35 PM,64.4,51.8,64,30.07,10.0,NW,13.8,20.7,N/A,,Overcast,320,2012-10-26 18:35:00
2:55 PM,62.6,53.6,72,30.08,10.0,WNW,16.1,-,N/A,,Overcast,300,2012-10-26 18:55:00
3:15 PM,60.8,53.6,77,30.08,10.0,NNW,17.3,-,N/A,,Scattered Clouds,330,2012-10-26 19:15:00
3:35 PM,57.2,51.8,82,30.09,10.0,NW,15.0,18.4,N/A,,Mostly Cloudy,320,2012-10-26 19:35:00
3:55 PM,55.4,51.8,88,30.09,8.0,NNW,13.8,18.4,N/A,,Overcast,330,2012-10-26 19:55:00
4:15 PM,53.6,48.2,82,30.08,10.0,NNW,11.5,19.6,N/A,,Overcast,340,2012-10-26 20:15:00
4:35 PM,53.6,48.2,82,30.09,10.0,North,12.7,-,N/A,,Overcast,350,2012-10-26 20:35:00
4:55 PM,51.8,48.2,88,30.09,10.0,NNW,10.4,-,N/A,,Overcast,340,2012-10-26 20:55:00
5:15 PM,51.8,46.4,82,30.09,10.0,North,11.5,-,N/A,,Overcast,350,2012-10-26 21:15:00
5:35 PM,51.8,48.2,88,30.10,10.0,NNW,9.2,-,N/A,,Overcast,330,2012-10-26 21:35:00
5:55 PM,51.8,46.4,82,30.09,10.0,North,12.7,-,N/A,,Overcast,360,2012-10-26 21:55:00
6:15 PM,51.8,46.4,82,30.11,10.0,North,10.4,-,N/A,,Overcast,360,2012-10-26 22:15:00
6:35 PM,50.0,44.6,82,30.11,10.0,North,10.4,-,N/A,,Overcast,360,2012-10-26 22:35:00
6:55 PM,50.0,44.6,82,30.12,10.0,North,11.5,18.4,N/A,,Overcast,10,2012-10-26 22:55:00
7:15 PM,48.2,44.6,87,30.13,10.0,North,13.8,20.7,N/A,,Overcast,360,2012-10-26 23:15:00
7:35 PM,48.2,44.6,87,30.14,10.0,North,13.8,-,N/A,,Overcast,360,2012-10-26 23:35:00
7:55 PM,46.4,42.8,87,30.15,10.0,North,15.0,20.7,N/A,,Overcast,360,2012-10-26 23:55:00
8:15 PM,46.4,42.8,87,30.15,10.0,North,12.7,-,N/A,,Overcast,360,2012-10-27 00:15:00
8:35 PM,46.4,42.8,87,30.15,3.0,North,11.5,-,N/A,,Overcast,360,2012-10-27 00:35:00
8:55 PM,46.4,42.8,87,30.15,9.0,North,11.5,-,N/A,,Overcast,10,2012-10-27 00:55:00
9:15 PM,46.4,42.8,87,30.14,10.0,NNE,12.7,-,N/A,,Overcast,20,2012-10-27 01:15:00
9:35 PM,46.4,44.6,93,30.15,10.0,North,10.4,-,N/A,,Overcast,350,2012-10-27 01:35:00
9:55 PM,46.4,42.8,87,30.15,10.0,NNE,10.4,-,0.02,,Overcast,20,2012-10-27 01:55:00
10:15 PM,44.6,42.8,93,30.15,9.0,NNE,8.1,-,0.05,,Overcast,30,2012-10-27 02:15:00
10:35 PM,44.6,42.8,93,30.14,8.0,NNE,11.5,-,0.20,,Overcast,20,2012-10-27 02:35:00
10:55 PM,44.6,42.8,93,30.15,9.0,North,8.1,-,0.31,,Overcast,10,2012-10-27 02:55:00
11:15 PM,44.6,42.8,93,30.15,10.0,North,8.1,-,0.05,,Overcast,10,2012-10-27 03:15:00
11:35 PM,44.6,42.8,93,30.14,8.0,NNE,10.4,-,0.08,,Overcast,30,2012-10-27 03:35:00